Pagrindinis puslapis
METAR-TAF:

METAR-TAF

Oro uostai :

Elsenborn

Bütgenbach, Belgija

platuma: 50-28N, ilguma: 006-11E, Aukštis: 564 m

Dabartinis oras

Ataskaita buvo paskelbta 44 minutes, ne 19:55 UTC
Vėjas 12 kt iš Pietų/Pietvakarių su gūsio iki 22 kt
Temperatūra 7°C
Drėgmė 93%
Slėgis 1004 hPa
Matomumas 10 km arba daugiau

METAR: EBLB 271955Z AUTO 20012G22KT 9999 OVC008/// 07/06 Q1004 GRN

Laikas: 21:39 (20:39 UTC)


TAF: trūkstamas

Orai ataskaitas ir orų prognozės (METAR, TAF).

turimą stotys yra geltonos ir raudonos taškus žemėlapyje.

Perkelti pele per norėdami pamatyti stoties vardą.

Tada spustelėkite, norėdami matyti oro stebėjimo ir prognozės.

Norėdami pakeisti žemėlapį: spustelėkite ant žalios mygtukų su juodo kryžiaus žemyn,; žalią mygtuką su brūkšneliu, jei norite nutolinti; arba žalių rodyklių gretimoms žemėlapius.


METAR-TAF: